Time;durP1;ratioP1;P1;durP2;ratioP2;P2;SDS_P1;SDS_P2;PMS_P1;PMS_P2;Temp;Humidity;BMP_temperature;BMP_pressure;BME280_temperature;BME280_humidity;BME280_pressure;Samples;Min_cycle;Max_cycle;Signal;HPM_P1;HPM_P2
2022/01/17 00:01:31;;;;;;;10.05;6.05;;;2.90;99.90;;;2.02;100.00;98561.97;5017508;28;20029;-49
2022/01/17 00:03:57;;;;;;;8.95;5.72;;;2.90;99.90;;;1.99;100.00;98551.53;5016925;28;20033;-46
2022/01/17 00:06:23;;;;;;;9.95;5.75;;;2.90;99.90;;;2.07;100.00;98554.25;4999096;28;20034;-44
2022/01/17 00:08:49;;;;;;;11.02;5.88;;;2.90;99.90;;;2.05;100.00;98562.03;5014012;28;20033;-44
2022/01/17 00:11:16;;;;;;;8.50;5.85;;;2.90;99.90;;;2.08;100.00;98567.28;5017515;28;20044;-45
2022/01/17 00:13:44;;;;;;;9.13;5.90;;;2.90;99.90;;;2.08;100.00;98572.50;5015526;28;20064;-43
2022/01/17 00:16:15;;;;;;;9.45;5.97;;;2.90;99.90;;;2.08;100.00;98567.28;5028116;28;20439;-38
2022/01/17 00:19:06;;;;;;;10.27;5.82;;;2.90;99.90;;;2.13;100.00;98569.06;5019684;28;20039;-46
2022/01/17 00:21:27;;;;;;;9.43;5.20;;;3.00;99.90;;;2.32;100.00;98584.13;5016957;28;20041;-42
2022/01/17 00:23:53;;;;;;;6.88;5.07;;;3.00;99.90;;;2.30;100.00;98591.03;5011563;28;20597;-43
2022/01/17 00:26:19;;;;;;;7.78;4.70;;;3.00;99.90;;;2.13;100.00;98576.88;5020104;28;20037;-50
2022/01/17 00:28:44;;;;;;;7.05;4.35;;;3.10;99.90;;;2.10;100.00;98583.78;5015306;28;20472;-45
2022/01/17 00:31:10;;;;;;;7.25;4.57;;;3.10;99.90;;;2.21;100.00;98583.09;5011679;28;20025;-43
2022/01/17 00:33:36;;;;;;;8.00;4.78;;;3.10;99.90;;;2.24;100.00;98598.72;5008504;28;20041;-45
2022/01/17 00:36:02;;;;;;;8.13;5.03;;;3.10;99.90;;;2.31;100.00;98624.00;5006475;28;20303;-46
2022/01/17 00:38:28;;;;;;;8.75;4.97;;;3.10;99.90;;;2.33;100.00;98624.91;5013054;28;20033;-48
2022/01/17 00:40:54;;;;;;;8.38;4.85;;;3.10;99.90;;;2.27;100.00;98625.69;5008679;28;20548;-41
2022/01/17 00:43:19;;;;;;;8.90;5.35;;;3.10;99.90;;;2.17;100.00;98625.53;5013348;28;20504;-44
2022/01/17 00:45:45;;;;;;;7.38;5.38;;;3.00;99.90;;;2.06;100.00;98633.16;5013296;28;20498;-43
2022/01/17 00:48:11;;;;;;;9.95;5.60;;;3.00;99.90;;;2.07;100.00;98625.38;5008694;28;20139;-45
2022/01/17 00:50:38;;;;;;;8.95;5.95;;;2.90;99.90;;;2.00;100.00;98626.13;5019804;28;20091;-41
2022/01/17 00:53:09;;;;;;;8.93;5.25;;;2.90;99.90;;;1.99;100.00;98629.59;5020677;28;20243;-40
2022/01/17 00:55:37;;;;;;;8.07;5.13;;;2.90;99.90;;;2.03;100.00;98627.91;5015904;28;20399;-44
2022/01/17 00:58:04;;;;;;;8.02;5.18;;;2.90;99.90;;;2.01;100.00;98625.28;5019154;28;20294;-41
2022/01/17 01:00:30;;;;;;;12.10;5.78;;;2.90;99.90;;;1.93;100.00;98633.81;5017360;28;20494;-42
2022/01/17 01:02:56;;;;;;;10.30;6.07;;;2.80;99.90;;;1.89;100.00;98623.34;5014385;28;20106;-46
2022/01/17 01:05:22;;;;;;;9.05;5.70;;;2.80;99.90;;;1.95;100.00;98645.09;5013052;28;20087;-43
2022/01/17 01:07:48;;;;;;;9.90;6.10;;;2.80;99.90;;;1.96;100.00;98649.47;5016633;28;20028;-41
2022/01/17 01:10:14;;;;;;;14.35;8.07;;;2.80;99.90;;;1.94;100.00;98649.44;5017675;28;20431;-41
2022/01/17 01:12:42;;;;;;;15.02;8.98;;;2.80;99.90;;;2.04;100.00;98648.72;5022275;28;20040;-40
2022/01/17 01:15:13;;;;;;;17.05;9.50;;;2.80;99.90;;;1.98;100.00;98651.25;5019297;28;20041;-45
2022/01/17 01:17:51;;;;;;;16.33;9.02;;;2.80;99.90;;;1.83;100.00;98657.06;5018194;28;20068;-47
2022/01/17 01:28:21;;;;;;;16.33;9.13;;;2.50;99.90;;;1.59;100.00;98664.41;5016509;28;20036;-45
2022/01/17 01:30:50;;;;;;;13.48;8.10;;;2.50;99.90;;;1.51;100.00;98674.66;5023596;28;20029;-49
2022/01/17 01:33:23;;;;;;;16.08;9.63;;;2.40;99.90;;;1.36;100.00;98653.56;5025569;28;20322;-47
2022/01/17 01:35:56;;;;;;;14.02;8.90;;;2.40;99.90;;;1.44;100.00;98665.84;5016125;28;20037;-45
2022/01/17 01:38:22;;;;;;;18.27;10.30;;;2.40;99.90;;;1.37;100.00;98665.72;5018876;28;20041;-44
2022/01/17 01:40:48;;;;;;;17.38;10.32;;;2.30;99.90;;;1.33;100.00;98660.44;5018792;28;20041;-48
2022/01/17 01:43:13;;;;;;;19.80;11.00;;;2.30;99.90;;;1.34;100.00;98659.59;5017496;28;20053;-44
2022/01/17 01:45:39;;;;;;;18.77;10.30;;;2.30;99.90;;;1.35;100.00;98663.09;5017452;28;20511;-47
2022/01/17 01:48:08;;;;;;;17.33;10.07;;;2.30;99.90;;;1.37;100.00;98657.91;5013642;28;20108;-39
2022/01/17 01:50:33;;;;;;;18.13;10.57;;;2.30;99.90;;;1.39;100.00;98656.22;5022539;28;20661;-40
2022/01/17 01:52:59;;;;;;;18.15;10.73;;;2.30;99.90;;;1.37;100.00;98642.31;5032215;28;20033;-44
2022/01/17 01:55:25;;;;;;;19.25;12.00;;;2.30;99.90;;;1.40;100.00;98648.47;5029846;28;20029;-41
2022/01/17 01:57:51;;;;;;;17.77;10.80;;;2.30;99.90;;;1.41;100.00;98634.59;5016692;28;20451;-41
2022/01/17 02:00:18;;;;;;;20.30;11.45;;;2.30;99.90;;;1.46;100.00;98637.28;5014174;28;20045;-42
2022/01/17 02:02:44;;;;;;;20.55;11.30;;;2.40;99.90;;;1.46;100.00;98637.28;5016181;28;20030;-46
2022/01/17 02:05:11;;;;;;;17.17;10.57;;;2.40;99.90;;;1.49;100.00;98635.63;5017922;28;20584;-46
2022/01/17 02:07:38;;;;;;;21.23;11.73;;;2.30;99.90;;;1.48;100.00;98628.66;5017891;28;20479;-42
2022/01/17 02:10:05;;;;;;;19.77;11.18;;;2.40;99.90;;;1.53;100.00;98631.38;5012746;28;20044;-39
2022/01/17 02:12:32;;;;;;;20.95;11.20;;;2.40;99.90;;;1.58;100.00;98623.63;5018091;28;20025;-45
2022/01/17 02:14:58;;;;;;;16.98;10.15;;;2.50;99.90;;;1.64;100.00;98621.16;5017260;28;20065;-45
2022/01/17 02:17:25;;;;;;;16.33;9.60;;;2.50;99.90;;;1.68;100.00;98616.03;5017768;28;20128;-47
2022/01/17 02:20:04;;;;;;;14.52;8.82;;;2.50;99.90;;;1.75;100.00;98624.81;5014849;28;20619;-42
2022/01/17 02:22:30;;;;;;;19.17;10.65;;;2.60;99.90;;;1.79;100.00;98620.56;5015724;28;20119;-48
2022/01/17 02:24:56;;;;;;;14.57;9.65;;;2.60;99.90;;;1.81;100.00;98624.94;5018369;28;20044;-47
2022/01/17 02:27:21;;;;;;;14.55;9.10;;;2.70;99.90;;;1.84;100.00;98618.91;5014650;28;20712;-42
2022/01/17 02:29:47;;;;;;;16.02;8.80;;;2.70;99.90;;;1.85;100.00;98613.75;5021045;28;20040;-45
2022/01/17 02:32:15;;;;;;;15.48;8.90;;;2.70;99.90;;;1.88;100.00;98616.41;5015086;28;20491;-45
2022/01/17 02:34:42;;;;;;;15.02;9.20;;;2.70;99.90;;;1.91;100.00;98620.75;5019512;28;20507;-43
2022/01/17 02:37:10;;;;;;;14.07;8.35;;;2.70;99.90;;;1.97;100.00;98614.78;5012241;28;20033;-40
2022/01/17 02:39:36;;;;;;;15.63;9.23;;;2.80;99.90;;;1.96;100.00;98618.25;5014425;28;20470;-45
2022/01/17 02:42:04;;;;;;;14.10;8.07;;;2.80;99.90;;;1.95;100.00;98619.97;5016460;28;20124;-45
2022/01/17 02:44:30;;;;;;;11.88;7.85;;;2.80;99.90;;;1.96;100.00;98628.66;5015570;28;20032;-43
2022/01/17 02:46:56;;;;;;;14.80;8.07;;;2.80;99.90;;;1.90;100.00;98625.09;5015506;28;20037;-44
2022/01/17 02:49:22;;;;;;;14.48;8.23;;;2.80;99.90;;;2.00;100.00;98646.94;5007636;28;20029;-47
2022/01/17 02:51:48;;;;;;;19.25;9.60;;;2.80;99.90;;;1.97;100.00;98633.00;5015237;28;20033;-42
2022/01/17 02:54:15;;;;;;;14.75;8.45;;;2.90;99.90;;;2.00;100.00;98643.47;5019492;28;20931;-44
2022/01/17 02:56:41;;;;;;;18.27;8.77;;;2.90;99.90;;;1.96;100.00;98634.72;5014557;28;20055;-42
2022/01/17 02:59:07;;;;;;;14.18;7.68;;;2.90;99.90;;;1.99;100.00;98636.50;5015666;28;20123;-46
2022/01/17 03:01:33;;;;;;;11.77;7.25;;;2.80;99.90;;;2.03;100.00;98641.78;5017473;28;20026;-38
2022/01/17 03:03:59;;;;;;;14.38;7.75;;;2.90;99.90;;;2.00;100.00;98631.31;5017631;28;20116;-49
2022/01/17 03:06:27;;;;;;;14.88;9.15;;;2.90;99.90;;;2.10;100.00;98646.25;5001847;28;20392;-45
2022/01/17 03:08:53;;;;;;;13.60;7.78;;;2.90;99.90;;;2.04;100.00;98627.06;5014976;28;20395;-47
2022/01/17 03:11:23;;;;;;;11.25;7.72;;;2.90;99.90;;;1.95;100.00;98613.88;5013199;28;20037;-46
2022/01/17 03:13:51;;;;;;;12.80;7.72;;;2.90;99.90;;;2.14;100.00;98641.97;5017216;28;20041;-47
2022/01/17 03:16:19;;;;;;;12.93;8.52;;;3.00;99.90;;;2.20;100.00;98646.41;4997807;28;20279;-49
2022/01/17 03:18:52;;;;;;;11.38;7.70;;;3.00;99.90;;;2.18;100.00;98651.56;5007716;28;20037;-44
2022/01/17 03:21:19;;;;;;;;;;;3.00;99.90;;;2.16;100.00;98647.22;5016825;28;20037;-45
2022/01/17 03:23:47;;;;;;;14.13;8.15;;;3.00;99.90;;;2.15;100.00;98640.25;5018077;28;19921;-45
2022/01/17 03:26:13;;;;;;;13.63;8.05;;;3.00;99.90;;;2.16;100.00;98653.28;5015516;28;20056;-43
2022/01/17 03:28:39;;;;;;;13.77;8.20;;;3.00;99.90;;;2.16;100.00;98642.88;5020697;28;20129;-41
2022/01/17 03:31:06;;;;;;;13.85;8.18;;;3.00;99.90;;;2.19;100.00;98634.22;5019022;28;20391;-43
2022/01/17 03:33:32;;;;;;;12.13;7.97;;;3.00;99.90;;;2.17;100.00;98617.72;5025286;28;20045;-40
2022/01/17 03:35:58;;;;;;;13.20;7.10;;;3.00;99.90;;;2.17;100.00;98610.78;5016569;28;20499;-48
2022/01/17 03:38:29;;;;;;;15.82;9.20;;;3.00;99.90;;;2.20;100.00;98625.56;5015887;28;20071;-46
2022/01/17 03:40:55;;;;;;;13.68;8.27;;;3.00;99.90;;;2.17;100.00;98628.13;5019159;28;20026;-39
2022/01/17 03:43:23;;;;;;;13.38;8.45;;;3.00;99.90;;;2.16;100.00;98631.59;5016859;28;20049;-46
2022/01/17 03:45:50;;;;;;;15.35;8.77;;;3.00;99.90;;;2.16;100.00;98648.06;5017333;28;20108;-41
2022/01/17 03:48:17;;;;;;;12.75;8.38;;;3.00;99.90;;;2.00;100.00;98649.53;5014431;28;20021;-46
2022/01/17 03:50:43;;;;;;;12.57;8.02;;;2.90;99.90;;;1.99;100.00;98652.09;5014168;28;20018;-41
2022/01/17 03:53:09;;;;;;;15.85;8.57;;;2.80;99.90;;;1.96;100.00;98641.69;5015470;28;20033;-43
2022/01/17 03:55:36;;;;;;;15.10;8.18;;;2.80;99.90;;;1.93;100.00;98646.81;5010202;28;20036;-41
2022/01/17 03:58:07;;;;;;;15.30;8.07;;;2.70;99.90;;;1.89;100.00;98654.56;5014956;28;20518;-44
2022/01/17 04:00:43;;;;;;;16.08;9.10;;;2.70;99.90;;;1.84;100.00;98655.34;5014915;28;20041;-48
2022/01/17 04:03:09;;;;;;;17.23;8.88;;;2.70;99.90;;;1.84;100.00;98655.34;5011437;28;20284;-45
2022/01/17 04:05:35;;;;;;;14.00;8.80;;;2.60;99.90;;;1.83;100.00;98648.34;5011332;28;20168;-44
2022/01/17 04:08:01;;;;;;;13.77;8.57;;;2.60;99.90;;;1.82;100.00;98654.44;5013861;28;20653;-42
2022/01/17 04:10:27;;;;;;;16.98;9.52;;;2.70;99.90;;;1.81;100.00;98661.38;5015204;28;20416;-42
2022/01/17 04:12:55;;;;;;;15.70;9.48;;;2.60;99.90;;;1.78;100.00;98658.69;5015162;28;20045;-45
2022/01/17 04:15:21;;;;;;;16.52;9.05;;;2.60;99.90;;;1.71;100.00;98656.84;5015593;28;20040;-47
2022/01/17 04:17:47;;;;;;;14.93;9.32;;;2.60;99.90;;;1.74;100.00;98656.88;5016104;28;20435;-48
2022/01/17 04:20:25;;;;;;;16.48;9.07;;;2.60;99.90;;;1.75;100.00;98645.63;5015871;28;20053;-45
2022/01/17 04:22:53;;;;;;;16.67;9.52;;;2.60;99.90;;;1.76;100.00;98652.59;5017179;28;20029;-46
2022/01/17 04:25:19;;;;;;;17.48;9.52;;;2.60;99.90;;;1.73;100.00;98636.94;5019950;28;20099;-45
2022/01/17 04:27:45;;;;;;;14.00;9.48;;;2.60;99.90;;;1.78;100.00;98643.09;5019796;28;20095;-47
2022/01/17 04:30:13;;;;;;;16.52;9.30;;;2.60;99.90;;;1.82;100.00;98644.03;5019552;28;20455;-42
2022/01/17 04:32:41;;;;;;;15.27;9.20;;;2.60;99.90;;;1.80;100.00;98635.31;5018111;28;20013;-45
2022/01/17 04:35:08;;;;;;;16.67;9.55;;;2.60;99.90;;;1.80;100.00;98625.78;5005682;28;20037;-44
2022/01/17 04:37:33;;;;;;;15.27;9.52;;;2.60;99.90;;;1.81;100.00;98619.75;5014324;28;20036;-46
2022/01/17 04:39:59;;;;;;;16.27;9.02;;;2.60;99.90;;;1.81;100.00;98637.06;5028020;28;20395;-44
2022/01/17 04:42:28;;;;;;;15.07;9.13;;;2.60;99.90;;;1.83;100.00;98646.66;5029775;28;20450;-42
2022/01/17 04:45:07;;;;;;;16.52;8.95;;;2.60;99.90;;;1.86;100.00;98649.28;5023087;28;20056;-44
2022/01/17 04:47:36;;;;;;;17.45;9.68;;;2.60;99.90;;;1.83;100.00;98653.56;5015705;28;20042;-44
2022/01/17 04:50:08;;;;;;;16.55;9.18;;;2.70;99.90;;;1.86;100.00;98656.22;5022473;28;20036;-44
2022/01/17 04:52:35;;;;;;;21.48;10.30;;;2.70;99.90;;;1.79;100.00;98649.16;5016708;28;21636;-47
2022/01/17 04:55:06;;;;;;;17.90;9.13;;;2.60;99.90;;;1.79;100.00;98649.16;5023660;28;20041;-41
2022/01/17 04:57:32;;;;;;;16.00;9.23;;;2.60;99.90;;;1.74;100.00;98653.41;5014921;28;20380;-41
2022/01/17 04:59:58;;;;;;;17.50;9.93;;;2.60;99.90;;;1.70;100.00;98649.88;5017626;28;20128;-50
2022/01/17 05:02:24;;;;;;;16.65;9.90;;;2.60;99.90;;;1.74;100.00;98649.06;5015459;28;20032;-47
2022/01/17 05:04:51;;;;;;;14.43;8.85;;;2.60;99.90;;;1.77;100.00;98654.34;5013370;28;20034;-40
2022/01/17 05:07:16;;;;;;;15.70;8.27;;;2.60;99.90;;;1.70;100.00;98648.13;5017326;28;20052;-48
2022/01/17 05:09:43;;;;;;;14.32;8.98;;;2.60;99.90;;;1.86;100.00;98667.50;5014487;28;20413;-43
2022/01/17 05:12:11;;;;;;;15.32;8.65;;;2.70;99.90;;;1.87;100.00;98669.28;5016077;28;20038;-44
2022/01/17 05:14:43;;;;;;;13.23;7.85;;;2.70;99.90;;;1.88;100.00;98667.53;5019960;28;20532;-48
2022/01/17 05:17:34;;;;;;;12.85;7.55;;;2.70;99.90;;;1.91;100.00;98667.59;5018509;28;20641;-45
2022/01/17 05:19:57;;;;;;;15.32;7.40;;;2.70;99.90;;;1.94;100.00;98657.25;5016062;28;20095;-44
2022/01/17 05:22:28;;;;;;;13.82;7.13;;;2.80;99.90;;;1.95;100.00;98658.13;5017256;28;21245;-43
2022/01/17 05:24:54;;;;;;;13.68;7.72;;;2.80;99.90;;;1.81;100.00;98644.84;5009769;28;20049;-46
2022/01/17 05:27:19;;;;;;;11.48;6.90;;;2.80;99.90;;;2.03;100.00;98675.63;5014046;28;20021;-47
2022/01/17 05:29:46;;;;;;;11.88;7.22;;;2.80;99.90;;;2.03;100.00;98678.22;5017202;28;20506;-43
2022/01/17 05:32:12;;;;;;;10.93;6.55;;;2.80;99.90;;;2.07;100.00;98680.03;5022000;28;20045;-48
2022/01/17 05:34:40;;;;;;;11.27;6.63;;;2.90;99.90;;;2.08;100.00;98663.56;5020986;28;20038;-45
2022/01/17 05:37:07;;;;;;;11.30;6.72;;;2.90;99.90;;;2.03;100.00;98656.53;5026458;28;20033;-44
2022/01/17 05:39:34;;;;;;;10.48;6.70;;;2.90;99.90;;;2.00;100.00;98662.56;5024157;28;20520;-43
2022/01/17 05:42:00;;;;;;;14.05;7.15;;;2.90;99.90;;;1.95;100.00;98634.72;5026285;28;20021;-43
2022/01/17 05:44:25;;;;;;;13.43;7.40;;;2.90;99.90;;;1.96;100.00;98652.94;5025334;28;20482;-43
2022/01/17 05:46:51;;;;;;;12.55;6.90;;;2.90;99.90;;;2.02;100.00;98660.84;5025967;28;20064;-47
2022/01/17 05:49:17;;;;;;;13.27;7.30;;;2.80;99.90;;;2.00;100.00;98659.94;5030014;28;20110;-42
2022/01/17 05:51:42;;;;;;;15.57;7.82;;;2.90;99.90;;;2.00;100.00;98657.34;5027774;28;20347;-46
2022/01/17 05:54:08;;;;;;;14.77;7.07;;;2.90;99.90;;;2.02;100.00;98658.25;5029006;28;20025;-41
2022/01/17 05:56:34;;;;;;;12.07;7.30;;;2.90;99.90;;;1.99;100.00;98647.81;5026797;28;20502;-50
2022/01/17 05:59:00;;;;;;;10.43;7.20;;;2.90;99.90;;;1.94;100.00;98657.25;5029984;28;20036;-42
2022/01/17 06:01:26;;;;;;;12.32;7.15;;;2.80;99.90;;;1.93;100.00;98655.50;5029775;28;20039;-43
2022/01/17 06:03:51;;;;;;;10.85;6.60;;;2.80;99.90;;;1.99;100.00;98650.41;5026464;28;20242;-45
2022/01/17 06:06:17;;;;;;;12.82;7.63;;;2.80;99.90;;;1.93;100.00;98647.69;5030890;28;20088;-42
2022/01/17 06:08:43;;;;;;;8.98;6.00;;;2.80;99.90;;;1.98;100.00;98650.38;5023621;28;20028;-46
2022/01/17 06:11:09;;;;;;;10.38;6.30;;;2.80;99.90;;;1.98;100.00;98652.97;5023470;28;20087;-43
2022/01/17 06:13:36;;;;;;;8.50;6.05;;;2.80;99.90;;;1.95;100.00;98658.13;5024478;28;20090;-44
2022/01/17 06:16:04;;;;;;;10.20;5.65;;;2.80;99.90;;;2.00;100.00;98662.56;5027529;28;20061;-42
2022/01/17 06:18:30;;;;;;;9.70;5.85;;;2.90;99.90;;;1.91;100.00;98647.66;5025460;28;20095;-49
2022/01/17 06:20:56;;;;;;;10.23;6.50;;;2.90;99.90;;;2.02;100.00;98666.06;5014004;28;20633;-53
2022/01/17 06:23:22;;;;;;;10.98;5.85;;;2.90;99.90;;;1.89;100.00;98638.94;5027701;28;20068;-44
2022/01/17 06:25:47;;;;;;;8.57;5.85;;;2.90;99.90;;;2.10;100.00;98680.09;5030697;28;20406;-42
2022/01/17 06:28:13;;;;;;;10.45;6.18;;;2.90;99.90;;;2.10;100.00;98679.22;5027374;28;20032;-40
2022/01/17 06:30:39;;;;;;;9.15;5.65;;;3.00;99.90;;;2.12;100.00;98671.41;5022616;28;20120;-43
2022/01/17 06:33:05;;;;;;;10.15;5.80;;;2.90;99.90;;;2.14;100.00;98688.81;5029916;28;20105;-48
2022/01/17 06:35:31;;;;;;;7.60;5.32;;;3.00;99.90;;;2.06;100.00;98670.47;5026561;28;20036;-48
2022/01/17 06:37:57;;;;;;;10.82;6.00;;;3.00;99.90;;;2.11;100.00;98678.34;5029791;28;20039;-45
2022/01/17 06:40:23;;;;;;;7.15;5.65;;;3.00;99.90;;;2.14;100.00;98696.63;5027438;28;20064;-43
2022/01/17 06:42:50;;;;;;;7.18;4.95;;;3.00;99.90;;;2.17;100.00;98711.41;5029122;28;20033;-43
2022/01/17 06:45:18;;;;;;;8.40;5.03;;;3.00;99.90;;;2.20;100.00;98701.06;5027625;28;20037;-43
2022/01/17 06:47:44;;;;;;;9.40;5.03;;;3.00;99.90;;;2.19;100.00;98713.22;5025999;28;20582;-42
2022/01/17 06:50:11;;;;;;;9.10;4.60;;;3.00;99.90;;;2.24;100.00;98718.47;5027420;28;20116;-39
2022/01/17 06:52:38;;;;;;;7.57;5.18;;;3.00;99.90;;;2.28;100.00;98712.50;5026532;28;20099;-44
2022/01/17 06:55:06;;;;;;;8.15;4.90;;;3.10;99.90;;;2.35;100.00;98732.56;5023918;28;20042;-49
2022/01/17 06:57:31;;;;;;;7.65;4.85;;;3.10;99.90;;;2.39;100.00;98723.97;5029720;28;20040;-48
2022/01/17 06:59:57;;;;;;;8.32;5.00;;;3.20;99.90;;;2.43;100.00;98717.94;5020112;28;20044;-46
2022/01/17 07:02:23;;;;;;;8.77;4.50;;;3.20;99.90;;;2.44;100.00;98714.50;5023295;28;20091;-43
2022/01/17 07:04:49;;;;;;;8.00;4.97;;;3.20;99.90;;;2.43;100.00;98714.47;5023845;28;20105;-41
2022/01/17 07:07:15;;;;;;;9.38;5.03;;;3.20;99.90;;;2.48;100.00;98718.03;5025581;28;20055;-41
2022/01/17 07:09:40;;;;;;;7.05;5.07;;;3.20;99.90;;;2.52;100.00;98725.03;5026980;28;20526;-46
2022/01/17 07:12:07;;;;;;;7.25;5.20;;;3.30;99.90;;;2.50;100.00;98742.38;5026366;28;20087;-42
2022/01/17 07:14:32;;;;;;;7.82;4.78;;;3.30;99.90;;;2.46;100.00;98756.19;5029042;28;20036;-44
2022/01/17 07:16:58;;;;;;;7.30;5.35;;;3.30;99.90;;;2.46;100.00;98772.69;5028929;28;20021;-48
2022/01/17 07:19:25;;;;;;;6.53;4.78;;;3.30;99.90;;;2.44;100.00;98747.44;5027713;28;20422;-46
2022/01/17 07:21:51;;;;;;;7.10;4.53;;;3.30;99.90;;;2.54;100.00;98764.13;5025399;28;20065;-43
2022/01/17 07:24:17;;;;;;;6.25;4.05;;;3.40;99.90;;;2.50;100.00;98775.34;5027773;28;20124;-45
2022/01/17 07:26:43;;;;;;;7.35;4.70;;;3.40;99.90;;;2.54;100.00;98778.03;5026482;28;20098;-45
2022/01/17 07:29:09;;;;;;;8.73;4.25;;;3.40;99.90;;;2.50;100.00;98780.56;5028580;28;20459;-41
2022/01/17 07:31:36;;;;;;;5.07;3.60;;;3.40;99.90;;;2.58;100.00;98786.75;5027204;28;20116;-42
2022/01/17 07:34:03;;;;;;;7.97;4.60;;;3.40;99.90;;;2.61;100.00;98768.59;5028412;28;20381;-46
2022/01/17 07:36:29;;;;;;;6.78;4.25;;;3.40;99.90;;;2.68;100.00;98765.25;5022085;28;20033;-44
2022/01/17 07:38:56;;;;;;;7.20;4.40;;;3.50;99.90;;;2.62;100.00;98749.50;5024894;28;20405;-44
2022/01/17 07:41:22;;;;;;;8.55;4.40;;;3.50;99.90;;;2.71;100.00;98754.88;5020438;28;20586;-42
2022/01/17 07:43:49;;;;;;;5.53;4.00;;;3.50;99.90;;;2.65;100.00;98744.34;5027455;28;20082;-45
2022/01/17 07:46:23;;;;;;;6.35;4.25;;;3.50;99.90;;;2.75;100.00;98772.31;5025337;28;20041;-46
2022/01/17 07:51:33;;;;;;;5.30;3.70;;;3.60;99.90;;;2.68;100.00;98750.47;5026340;28;20403;-47
2022/01/17 07:53:59;;;;;;;7.13;4.03;;;3.60;99.90;;;2.78;100.00;98764.53;5020400;28;20426;-41
2022/01/17 07:56:25;;;;;;;6.20;4.45;;;3.60;99.90;;;2.92;100.00;98761.25;4991966;28;20098;-49
2022/01/17 07:58:52;;;;;;;6.78;3.88;;;3.60;99.90;;;2.83;100.00;98775.88;5028097;28;20025;-47
2022/01/17 08:01:17;;;;;;;7.68;4.35;;;3.60;99.90;;;2.85;100.00;98779.44;5028628;28;20038;-46
2022/01/17 08:03:43;;;;;;;6.10;3.97;;;3.70;99.90;;;2.91;100.00;98793.38;5027625;28;20075;-47
2022/01/17 08:06:09;;;;;;;7.28;4.50;;;3.70;99.90;;;2.81;100.00;98777.59;5030395;28;20476;-42
2022/01/17 08:08:35;;;;;;;7.82;4.22;;;3.70;99.90;;;2.65;100.00;98753.03;5024686;28;20030;-40
2022/01/17 08:11:01;;;;;;;6.60;4.10;;;3.70;99.90;;;2.90;100.00;98789.03;5026384;28;20538;-44
2022/01/17 08:13:26;;;;;;;5.45;3.80;;;3.70;99.90;;;2.88;100.00;98786.41;5026232;28;20220;-42
2022/01/17 08:15:52;;;;;;;5.82;3.97;;;3.70;99.90;;;2.99;100.00;98789.16;5028378;28;20445;-43
2022/01/17 08:18:18;;;;;;;7.25;3.95;;;3.80;99.90;;;3.07;100.00;98787.56;5027921;28;20128;-47
2022/01/17 08:20:44;;;;;;;4.55;3.28;;;3.90;99.90;;;3.07;100.00;98787.56;5024748;28;20502;-50
2022/01/17 08:23:10;;;;;;;5.45;3.72;;;3.90;99.90;;;3.25;100.00;98790.44;5024560;28;20033;-45
2022/01/17 08:25:37;;;;;;;5.03;3.22;;;4.00;99.90;;;3.31;100.00;98781.81;5026930;28;20527;-41
2022/01/17 08:28:04;;;;;;;5.03;3.63;;;4.10;99.90;;;3.38;100.00;98788.88;5026358;28;20061;-40
2022/01/17 08:30:31;;;;;;;6.60;3.92;;;4.10;99.90;;;3.39;100.00;98775.00;5028819;28;20029;-46
2022/01/17 08:32:58;;;;;;;5.13;3.50;;;4.20;99.90;;;3.50;100.00;98769.94;5027815;28;20029;-46
2022/01/17 08:35:24;;;;;;;5.80;3.50;;;4.20;99.90;;;3.48;100.00;98774.22;5026711;28;20032;-44
2022/01/17 08:37:50;;;;;;;4.80;3.70;;;4.30;99.90;;;3.41;100.00;98775.00;5027826;28;20041;-44
2022/01/17 08:40:18;;;;;;;4.75;3.15;;;4.30;99.90;;;3.55;100.00;98769.97;5027940;28;20029;-43
2022/01/17 08:42:45;;;;;;;5.97;3.83;;;4.30;99.90;;;3.51;100.00;98761.22;5023407;28;20032;-49
2022/01/17 08:45:14;;;;;;;5.25;3.50;;;4.30;99.90;;;3.42;100.00;98758.50;5026074;28;20032;-47
2022/01/17 08:47:40;;;;;;;5.70;3.33;;;4.30;99.90;;;3.44;100.00;98752.44;5023785;28;20469;-50
2022/01/17 08:50:07;;;;;;;7.18;3.67;;;4.30;99.90;;;3.43;100.00;98755.91;5025666;28;20029;-44
2022/01/17 08:52:33;;;;;;;5.03;3.10;;;4.20;99.90;;;3.48;100.00;98757.69;5031346;28;20025;-42
2022/01/17 08:54:59;;;;;;;4.22;3.50;;;4.30;99.90;;;3.43;100.00;98761.13;5028635;28;20078;-42
2022/01/17 08:57:26;;;;;;;5.15;3.30;;;4.30;99.90;;;3.50;100.00;98769.03;5026569;28;20087;-45
2022/01/17 08:59:52;;;;;;;3.67;3.05;;;4.30;99.90;;;3.56;100.00;98782.16;5031101;28;20414;-48
2022/01/17 09:02:19;;;;;;;5.20;3.20;;;4.30;99.90;;;3.54;100.00;98758.66;5029723;28;20037;-44
2022/01/17 09:04:46;;;;;;;6.50;3.50;;;4.40;99.90;;;3.83;100.00;98798.16;5024041;28;20021;-46
2022/01/17 09:07:15;;;;;;;4.57;2.88;;;4.60;99.90;;;3.83;100.00;98799.91;5029532;28;20119;-40
2022/01/17 09:09:42;;;;;;;3.55;2.40;;;4.70;99.90;;;3.91;100.00;98785.22;5033223;28;20029;-45
2022/01/17 09:12:10;;;;;;;4.03;2.60;;;4.70;99.90;;;4.03;100.00;98802.75;5031125;28;20025;-44
2022/01/17 09:14:37;;;;;;;5.28;2.35;;;4.80;99.90;;;4.12;100.00;98801.97;5020582;28;20044;-42
2022/01/17 09:17:08;;;;;;;5.10;2.40;;;4.90;99.90;;;4.26;100.00;98805.63;5026350;28;20344;-45
2022/01/17 09:19:38;;;;;;;4.97;2.20;;;5.00;99.90;;;4.50;100.00;98793.66;5019195;28;20392;-48
2022/01/17 09:22:06;;;;;;;4.60;2.25;;;5.20;99.90;;;4.68;100.00;98787.75;5028002;28;20036;-39
2022/01/17 09:24:37;;;;;;;5.53;2.40;;;5.50;99.90;;;4.87;100.00;98783.56;5028248;28;20022;-45
2022/01/17 09:27:05;;;;;;;4.97;2.50;;;5.60;99.90;;;5.06;100.00;98788.06;5029043;28;21024;-41
2022/01/17 09:29:33;;;;;;;4.90;2.20;;;5.70;99.90;;;5.17;100.00;98798.59;5033232;28;20406;-42
2022/01/17 09:31:59;;;;;;;3.35;2.45;;;5.90;99.90;;;5.27;100.00;98810.00;5022015;28;20030;-42
2022/01/17 09:34:26;;;;;;;4.88;2.65;;;6.00;99.90;;;5.49;100.00;98813.63;5021788;28;20044;-42
2022/01/17 09:36:52;;;;;;;6.38;2.40;;;6.10;99.90;;;5.57;100.00;98829.38;5027172;28;20045;-43
2022/01/17 09:39:19;;;;;;;2.67;2.05;;;6.20;99.90;;;5.70;99.92;98846.91;5023147;28;20053;-45
2022/01/17 09:41:45;;;;;;;3.13;2.00;;;6.40;99.90;;;5.80;99.29;98847.84;5011010;28;20460;-46
2022/01/17 09:44:11;;;;;;;3.38;1.95;;;6.50;99.90;;;5.67;94.88;98839.00;5029313;28;20229;-45
2022/01/17 09:46:42;;;;;;;3.05;1.60;;;6.50;99.90;;;5.82;95.73;98867.03;5022263;28;20046;-48
2022/01/17 09:49:15;;;;;;;4.38;2.05;;;6.60;99.90;;;5.75;94.33;98839.94;5026474;28;20021;-44
2022/01/17 09:54:27;;;;;;;2.22;1.63;;;6.50;99.90;;;5.76;93.54;98859.13;5021947;28;19913;-40
2022/01/17 09:56:55;;;;;;;2.13;1.70;;;6.50;99.90;;;5.65;92.92;98841.66;5024841;28;20022;-47
2022/01/17 09:59:22;;;;;;;2.53;1.60;;;6.50;99.90;;;5.72;91.01;98866.09;5020936;28;20021;-49
2022/01/17 10:01:49;;;;;;;2.15;1.38;;;6.50;99.90;;;5.57;91.19;98868.63;5002089;28;20494;-46
2022/01/17 10:04:17;;;;;;;2.72;1.58;;;6.40;99.90;;;5.54;95.26;98848.53;5027925;28;20045;-45
2022/01/17 10:06:51;;;;;;;1.65;1.40;;;6.40;99.90;;;5.58;93.97;98862.53;5021523;28;20044;-40
2022/01/17 10:09:24;;;;;;;4.10;1.70;;;6.30;99.90;;;5.58;99.84;98866.03;5018045;28;20030;-46
2022/01/17 10:12:00;;;;;;;2.88;1.50;;;6.30;99.90;;;5.52;94.95;98860.75;5021934;28;20029;-43
2022/01/17 10:14:28;;;;;;;2.08;1.38;;;6.30;99.90;;;5.58;97.13;98850.34;5023052;28;20035;-47
2022/01/17 10:16:54;;;;;;;1.90;1.13;;;6.30;99.90;;;5.57;97.23;98866.03;5029996;28;20029;-47
2022/01/17 10:19:25;;;;;;;1.45;0.98;;;6.30;99.90;;;5.54;93.77;98870.38;5021820;28;20487;-43
2022/01/17 10:21:57;;;;;;;1.30;1.20;;;6.30;99.90;;;5.53;95.83;98844.19;5025684;28;20478;-44
2022/01/17 10:27:08;;;;;;;2.10;1.40;;;6.30;99.90;;;5.50;98.85;98841.53;5025275;28;20138;-46
2022/01/17 10:35:33;;;;;;;2.55;1.40;;;6.30;99.90;;;5.29;95.46;98796.06;5036005;23;20056;-86
2022/01/17 10:38:17;;;;;;;2.15;1.20;;;6.30;99.90;;;5.49;92.63;98809.28;5027744;28;20464;-85
2022/01/17 10:40:53;;;;;;;1.50;1.00;;;6.40;99.90;;;5.05;91.04;98768.00;5018108;28;20036;-85
2022/01/17 10:43:39;;;;;;;1.33;1.10;;;6.40;99.90;;;5.48;91.36;98822.34;5011832;28;20025;-85
2022/01/17 10:46:12;;;;;;;3.00;1.67;;;6.40;99.90;;;5.62;91.37;98839.00;5005169;28;20394;-86